Time;durP1;ratioP1;P1;durP2;ratioP2;P2;SDS_P1;SDS_P2;PMS_P1;PMS_P2;Temp;Humidity;BMP_temperature;BMP_pressure;BME280_temperature;BME280_humidity;BME280_pressure;Samples;Min_cycle;Max_cycle;Signal;HPM_P1;HPM_P2
2023/08/17 00:00:13;;;;;;;2.85;1.77;;;19.70;99.90;;;;;;5053802;28;20181;-93
2023/08/17 00:02:40;;;;;;;4.80;1.88;;;19.80;99.90;;;;;;5056523;28;20190;-93
2023/08/17 00:05:06;;;;;;;3.88;2.08;;;19.80;99.90;;;;;;5073949;28;20183;-91
2023/08/17 00:07:33;;;;;;;4.18;2.22;;;19.80;99.90;;;;;;5059625;28;20197;-91
2023/08/17 00:10:01;;;;;;;6.07;2.17;;;19.80;99.90;;;;;;5053620;28;20224;-92
2023/08/17 00:12:26;;;;;;;6.00;1.80;;;19.80;99.90;;;;;;5055198;28;20265;-93
2023/08/17 00:14:53;;;;;;;4.68;1.70;;;19.90;99.90;;;;;;5057225;28;20606;-93
2023/08/17 00:17:19;;;;;;;6.53;1.90;;;19.80;99.90;;;;;;5067065;28;20189;-92
2023/08/17 00:19:58;;;;;;;4.68;1.67;;;19.90;99.90;;;;;;5077448;28;20212;-94
2023/08/17 00:22:24;;;;;;;4.45;1.88;;;19.80;99.90;;;;;;5077505;28;20619;-94
2023/08/17 00:24:50;;;;;;;2.60;1.80;;;19.80;99.90;;;;;;5076813;28;20200;-91
2023/08/17 00:27:15;;;;;;;17.02;1.95;;;19.90;99.90;;;;;;5077023;28;20185;-94
2023/08/17 00:29:41;;;;;;;3.90;2.00;;;19.90;99.90;;;;;;5076826;28;20209;-91
2023/08/17 00:32:07;;;;;;;6.82;2.38;;;19.80;99.90;;;;;;5077997;28;20188;-93
2023/08/17 00:34:32;;;;;;;5.88;1.60;;;19.80;99.90;;;;;;5077174;28;20181;-94
2023/08/17 00:36:58;;;;;;;4.07;1.85;;;19.80;99.90;;;;;;5070276;28;20190;-94
2023/08/17 00:39:34;;;;;;;4.97;1.85;;;19.80;99.90;;;;;;5076701;28;20631;-93
2023/08/17 00:42:00;;;;;;;6.25;1.77;;;19.80;99.90;;;;;;5077779;28;20200;-94
2023/08/17 00:44:26;;;;;;;3.53;1.70;;;19.70;99.90;;;;;;5077843;28;20215;-93
2023/08/17 00:46:52;;;;;;;3.95;1.75;;;19.70;99.90;;;;;;5109205;28;20193;-94
2023/08/17 00:49:19;;;;;;;4.80;2.00;;;19.80;99.90;;;;;;5057866;28;20240;-93
2023/08/17 00:51:45;;;;;;;5.40;1.83;;;19.80;99.90;;;;;;5090778;28;20189;-95
2023/08/17 00:54:11;;;;;;;4.20;1.55;;;19.70;99.90;;;;;;5056700;28;20203;-94
2023/08/17 00:56:37;;;;;;;5.07;1.85;;;19.80;99.90;;;;;;5076287;28;20208;-95
2023/08/17 00:59:05;;;;;;;4.72;1.75;;;19.70;99.90;;;;;;5057750;28;20624;-93
2023/08/17 01:01:31;;;;;;;2.85;1.70;;;19.70;99.90;;;;;;5056728;28;20170;-93
2023/08/17 01:03:57;;;;;;;5.15;1.80;;;19.60;99.90;;;;;;5072639;28;20604;-95
2023/08/17 01:06:23;;;;;;;4.43;1.95;;;19.60;99.90;;;;;;5090997;28;20190;-95
2023/08/17 01:08:57;;;;;;;2.88;1.60;;;19.50;99.90;;;;;;5056758;28;20189;-94
2023/08/17 01:11:37;;;;;;;6.68;1.75;;;19.50;99.90;;;;;;5073502;28;20542;-96
2023/08/17 01:14:25;;;;;;;6.78;2.00;;;19.60;99.90;;;;;;5058401;28;20169;-96
2023/08/17 01:17:11;;;;;;;7.72;1.77;;;19.60;99.90;;;;;;5062152;28;20229;-92
2023/08/17 01:19:38;;;;;;;6.30;2.00;;;19.60;99.90;;;;;;5064275;28;20181;-90
2023/08/17 01:22:08;;;;;;;5.30;1.88;;;19.60;99.90;;;;;;5074021;28;20177;-95
2023/08/17 01:24:34;;;;;;;7.10;2.15;;;19.60;99.90;;;;;;5056704;28;20185;-94
2023/08/17 01:27:00;;;;;;;3.95;1.88;;;19.60;99.90;;;;;;5059204;28;20184;-92
2023/08/17 01:29:36;;;;;;;4.88;2.10;;;19.60;99.90;;;;;;5071069;28;20256;-96
2023/08/17 01:32:19;;;;;;;4.28;2.10;;;19.60;99.90;;;;;;5055746;28;20297;-94
2023/08/17 01:34:52;;;;;;;5.03;2.30;;;19.60;99.90;;;;;;5037207;28;20261;-96
2023/08/17 01:37:22;;;;;;;4.20;2.35;;;19.60;99.90;;;;;;5038140;28;20296;-94
2023/08/17 01:39:55;;;;;;;5.28;2.30;;;19.50;99.90;;;;;;5407713;23;20549;-95
2023/08/17 01:42:22;;;;;;;5.95;2.38;;;19.40;99.90;;;;;;4995552;28;20583;-93
2023/08/17 01:44:47;;;;;;;4.82;2.30;;;19.40;99.90;;;;;;4983488;28;20251;-95
2023/08/17 01:47:13;;;;;;;5.45;2.47;;;19.40;99.90;;;;;;4961165;28;20897;-93
2023/08/17 01:49:39;;;;;;;6.07;2.30;;;19.40;99.90;;;;;;4988077;28;20306;-96
2023/08/17 01:52:07;;;;;;;5.20;2.55;;;19.30;99.90;;;;;;4995899;28;20187;-92
2023/08/17 01:54:35;;;;;;;5.60;2.45;;;19.30;99.90;;;;;;4995120;28;20176;-91
2023/08/17 01:57:01;;;;;;;10.68;2.60;;;19.30;99.90;;;;;;4982385;28;20180;-91
2023/08/17 01:59:27;;;;;;;10.82;3.10;;;19.20;99.90;;;;;;4996031;28;20322;-93
2023/08/17 02:01:55;;;;;;;8.38;3.65;;;19.20;99.90;;;;;;4995555;28;20214;-90
2023/08/17 02:04:20;;;;;;;16.33;3.95;;;19.10;99.90;;;;;;4994988;28;20180;-89
2023/08/17 02:06:46;;;;;;;8.82;4.15;;;19.00;99.90;;;;;;4995774;28;20186;-92
2023/08/17 02:09:12;;;;;;;8.63;3.33;;;18.90;99.90;;;;;;4989149;28;20203;-90
2023/08/17 02:11:39;;;;;;;7.40;3.30;;;18.80;99.90;;;;;;4995013;28;20271;-91
2023/08/17 02:14:05;;;;;;;7.95;3.55;;;18.80;99.90;;;;;;4995659;28;20172;-90
2023/08/17 02:16:31;;;;;;;8.65;3.20;;;18.80;99.90;;;;;;4992387;28;20188;-93
2023/08/17 02:18:56;;;;;;;5.53;3.17;;;18.80;99.90;;;;;;4988506;28;20267;-94
2023/08/17 02:21:22;;;;;;;10.45;3.90;;;18.70;99.90;;;;;;4998989;28;20230;-92
2023/08/17 02:23:48;;;;;;;10.93;4.68;;;18.70;99.90;;;;;;4996079;28;20234;-90
2023/08/17 02:26:13;;;;;;;13.20;4.50;;;18.70;99.90;;;;;;4987152;28;20185;-92
2023/08/17 02:28:39;;;;;;;11.15;4.88;;;18.70;99.90;;;;;;4989277;28;20207;-92
2023/08/17 02:31:06;;;;;;;10.40;4.70;;;18.60;99.90;;;;;;4996000;28;20211;-93
2023/08/17 02:33:50;;;;;;;8.90;3.92;;;18.70;99.90;;;;;;4995492;28;20179;-92
2023/08/17 02:36:15;;;;;;;10.25;3.67;;;18.80;99.90;;;;;;4982825;28;20278;-92
2023/08/17 02:38:41;;;;;;;8.25;3.35;;;18.80;99.90;;;;;;4996293;28;20218;-91
2023/08/17 02:41:07;;;;;;;4.80;2.97;;;18.80;99.90;;;;;;4995989;28;20319;-93
2023/08/17 02:43:49;;;;;;;5.05;2.80;;;18.80;99.90;;;;;;4995769;28;20180;-92
2023/08/17 02:46:15;;;;;;;4.30;2.83;;;18.90;99.90;;;;;;4981659;28;20280;-91
2023/08/17 02:48:41;;;;;;;4.53;2.30;;;18.80;99.90;;;;;;4985414;28;20581;-93
2023/08/17 02:51:07;;;;;;;4.85;2.30;;;18.90;99.90;;;;;;4976854;28;20227;-94
2023/08/17 02:53:34;;;;;;;4.57;2.28;;;18.90;99.90;;;;;;4977048;28;20571;-93
2023/08/17 02:56:00;;;;;;;4.88;2.50;;;18.80;99.90;;;;;;4985720;28;20230;-94
2023/08/17 02:58:26;;;;;;;4.28;2.42;;;18.80;99.90;;;;;;4995414;28;20611;-94
2023/08/17 03:00:52;;;;;;;4.55;2.67;;;18.80;99.90;;;;;;4996459;28;20530;-96
2023/08/17 03:03:20;;;;;;;5.78;3.03;;;18.70;99.90;;;;;;4996299;28;20254;-96
2023/08/17 03:05:45;;;;;;;3.20;2.78;;;18.80;99.90;;;;;;4989156;28;20180;-96
2023/08/17 03:08:11;;;;;;;4.78;3.03;;;18.80;99.90;;;;;;4986666;28;20276;-96
2023/08/17 03:10:37;;;;;;;6.40;3.40;;;18.70;99.90;;;;;;4996123;28;20212;-95
2023/08/17 03:13:06;;;;;;;8.15;3.30;;;18.70;99.90;;;;;;5006535;28;20569;-96
2023/08/17 03:15:34;;;;;;;4.82;3.00;;;18.70;99.90;;;;;;5014545;28;20180;-96
2023/08/17 03:18:01;;;;;;;5.40;3.55;;;18.70;99.90;;;;;;5010942;23;20263;-96
2023/08/17 03:20:26;;;;;;;5.40;3.20;;;18.70;99.90;;;;;;5009499;28;20487;-95
2023/08/17 03:23:00;;;;;;;5.97;3.25;;;18.70;99.90;;;;;;5003632;28;20210;-96
2023/08/17 03:25:26;;;;;;;5.30;3.10;;;18.60;99.90;;;;;;5044332;23;20232;-96
2023/08/17 03:27:52;;;;;;;5.85;3.45;;;18.60;99.90;;;;;;4984979;28;20184;-96
2023/08/17 03:30:18;;;;;;;5.63;3.20;;;18.70;99.90;;;;;;4985963;28;20188;-96
2023/08/17 03:32:45;;;;;;;6.68;3.10;;;18.60;99.90;;;;;;4988091;28;20251;-96
2023/08/17 03:35:13;;;;;;;4.78;3.33;;;18.60;99.90;;;;;;4986834;28;20188;-96
2023/08/17 03:37:39;;;;;;;5.30;3.10;;;18.60;99.90;;;;;;4982740;28;20176;-95
2023/08/17 03:40:07;;;;;;;5.75;3.28;;;18.60;99.90;;;;;;4981346;28;20271;-95
2023/08/17 03:42:33;;;;;;;7.68;3.50;;;18.60;99.90;;;;;;4981267;28;20184;-95
2023/08/17 03:45:00;;;;;;;5.80;3.60;;;18.60;99.90;;;;;;4982216;28;20187;-96
2023/08/17 03:47:26;;;;;;;5.15;3.30;;;18.50;99.90;;;;;;4977834;28;20323;-96
2023/08/17 03:49:52;;;;;;;6.85;3.55;;;18.50;99.90;;;;;;4980514;28;20235;-92
2023/08/17 03:52:21;;;;;;;7.50;3.47;;;18.50;99.90;;;;;;4990114;28;20197;-96
2023/08/17 03:54:47;;;;;;;5.38;3.42;;;18.50;99.90;;;;;;4986896;28;20191;-95
2023/08/17 03:57:13;;;;;;;7.45;3.72;;;18.50;99.90;;;;;;4985539;28;20185;-96
2023/08/17 03:59:40;;;;;;;5.53;3.40;;;18.50;99.90;;;;;;4986649;28;20263;-94
2023/08/17 04:02:06;;;;;;;5.85;3.85;;;18.50;99.90;;;;;;4965747;28;20177;-95
2023/08/17 04:04:32;;;;;;;7.25;4.05;;;18.50;99.90;;;;;;4999961;28;20208;-96
2023/08/17 04:06:58;;;;;;;4.22;3.40;;;18.50;99.90;;;;;;4986646;28;20192;-96
2023/08/17 04:09:23;;;;;;;6.97;3.67;;;18.50;99.90;;;;;;4978562;28;20649;-96
2023/08/17 04:11:49;;;;;;;7.97;4.00;;;18.50;99.90;;;;;;4977440;28;20200;-94
2023/08/17 04:14:16;;;;;;;5.50;3.80;;;18.50;99.90;;;;;;4978332;28;20272;-96
2023/08/17 04:16:41;;;;;;;5.80;3.90;;;18.50;99.90;;;;;;4979498;28;20192;-95
2023/08/17 04:19:07;;;;;;;6.80;3.80;;;18.40;99.90;;;;;;4977038;28;20691;-94
2023/08/17 04:21:33;;;;;;;6.65;3.97;;;18.40;99.90;;;;;;4976207;28;20187;-94
2023/08/17 04:24:03;;;;;;;4.47;3.50;;;18.40;99.90;;;;;;4975436;28;20216;-96
2023/08/17 04:26:29;;;;;;;4.70;3.80;;;18.40;99.90;;;;;;4981004;28;20233;-96
2023/08/17 04:28:54;;;;;;;6.40;3.90;;;18.40;99.90;;;;;;4981808;28;20208;-96
2023/08/17 04:31:22;;;;;;;6.97;3.38;;;18.50;99.90;;;;;;4979915;28;20667;-95
2023/08/17 04:33:55;;;;;;;4.55;3.40;;;18.50;99.90;;;;;;4980456;28;20180;-96
2023/08/17 04:36:22;;;;;;;3.78;3.10;;;18.50;99.90;;;;;;4982555;28;20188;-96
2023/08/17 04:38:48;;;;;;;3.95;3.00;;;18.50;99.90;;;;;;4982485;28;20183;-96
2023/08/17 04:41:13;;;;;;;4.95;3.00;;;18.60;99.90;;;;;;4982344;28;20256;-96
2023/08/17 04:43:40;;;;;;;3.95;2.65;;;18.50;99.90;;;;;;4980477;28;20195;-96
2023/08/17 04:46:06;;;;;;;4.20;2.90;;;18.60;99.90;;;;;;4975841;28;20640;-95
2023/08/17 04:48:32;;;;;;;6.93;3.40;;;18.60;99.90;;;;;;4974631;28;20200;-95
2023/08/17 04:50:58;;;;;;;4.30;3.15;;;18.50;99.90;;;;;;4978547;28;20223;-94
2023/08/17 04:53:29;;;;;;;4.00;3.20;;;18.50;99.90;;;;;;4977679;28;20192;-95
2023/08/17 04:55:58;;;;;;;4.78;2.67;;;18.50;99.90;;;;;;4977933;28;20185;-95
2023/08/17 04:58:24;;;;;;;3.05;2.55;;;18.50;99.90;;;;;;4960325;28;20192;-92
2023/08/17 05:00:51;;;;;;;3.70;3.25;;;18.50;99.90;;;;;;4977781;28;20215;-94
2023/08/17 05:03:40;;;;;;;5.25;3.35;;;18.50;99.90;;;;;;4978343;28;20180;-95
2023/08/17 05:06:09;;;;;;;5.18;3.05;;;18.50;99.90;;;;;;4977647;28;20181;-95
2023/08/17 05:08:35;;;;;;;3.47;2.50;;;18.50;99.90;;;;;;4976917;28;20185;-95
2023/08/17 05:11:01;;;;;;;4.47;3.13;;;18.50;99.90;;;;;;4978376;28;20678;-96
2023/08/17 05:13:26;;;;;;;3.97;2.50;;;18.50;99.90;;;;;;4978161;28;20173;-91
2023/08/17 05:15:52;;;;;;;4.38;2.58;;;18.50;99.90;;;;;;4978526;28;20180;-96
2023/08/17 05:18:18;;;;;;;2.70;2.50;;;18.50;99.90;;;;;;4980120;28;20185;-94
2023/08/17 05:20:43;;;;;;;5.22;2.65;;;18.50;99.90;;;;;;4979841;28;20176;-95
2023/08/17 05:23:10;;;;;;;2.92;2.47;;;18.50;99.90;;;;;;4979498;28;20184;-94
2023/08/17 05:25:36;;;;;;;2.53;2.33;;;18.50;99.90;;;;;;4977528;28;20683;-92
2023/08/17 05:28:01;;;;;;;4.25;2.60;;;18.50;99.90;;;;;;4977112;28;20183;-92
2023/08/17 05:30:27;;;;;;;3.00;2.67;;;18.50;99.90;;;;;;4977089;28;20658;-94
2023/08/17 05:32:53;;;;;;;6.63;2.80;;;18.50;99.90;;;;;;4977067;28;20193;-95
2023/08/17 05:35:26;;;;;;;3.80;3.00;;;18.40;99.90;;;;;;4977802;28;20719;-93
2023/08/17 05:37:51;;;;;;;3.45;2.60;;;18.50;99.90;;;;;;4977222;28;20208;-93
2023/08/17 05:40:17;;;;;;;4.57;2.70;;;18.50;99.90;;;;;;4976823;28;20554;-92
2023/08/17 05:42:43;;;;;;;5.70;2.75;;;18.50;99.90;;;;;;4976768;28;20180;-93
2023/08/17 05:45:10;;;;;;;3.30;2.50;;;18.50;99.90;;;;;;4969920;28;20551;-93
2023/08/17 05:47:36;;;;;;;3.63;2.58;;;18.50;99.90;;;;;;4957804;28;20212;-92
2023/08/17 05:50:01;;;;;;;3.13;2.45;;;18.50;99.90;;;;;;4970632;28;20251;-93
2023/08/17 05:52:27;;;;;;;3.22;2.70;;;18.50;99.90;;;;;;4976873;28;20257;-93
2023/08/17 05:54:55;;;;;;;4.95;2.78;;;18.50;99.90;;;;;;4976845;28;20184;-91
2023/08/17 05:57:20;;;;;;;4.00;2.58;;;18.50;99.90;;;;;;4976906;28;20564;-95
2023/08/17 05:59:46;;;;;;;3.83;2.70;;;18.40;99.90;;;;;;4976433;28;20184;-96
2023/08/17 06:02:12;;;;;;;5.95;4.00;;;18.40;99.90;;;;;;4976294;28;20228;-94
2023/08/17 06:04:38;;;;;;;3.08;2.55;;;18.40;99.90;;;;;;4975883;28;20189;-91
2023/08/17 06:07:04;;;;;;;3.05;2.60;;;18.40;99.90;;;;;;4976536;28;20235;-93
2023/08/17 06:09:30;;;;;;;5.25;2.83;;;18.30;99.90;;;;;;4975317;28;20548;-92
2023/08/17 06:11:56;;;;;;;6.05;3.10;;;18.30;99.90;;;;;;4976255;28;20273;-93
2023/08/17 06:14:24;;;;;;;4.43;2.70;;;18.30;99.90;;;;;;4976452;28;20703;-91
2023/08/17 06:16:50;;;;;;;5.72;3.00;;;18.20;99.90;;;;;;4976120;28;20189;-91
2023/08/17 06:19:16;;;;;;;4.55;2.90;;;18.20;99.90;;;;;;4975706;28;20180;-91
2023/08/17 06:21:41;;;;;;;3.42;2.55;;;18.20;99.90;;;;;;4976482;28;20181;-90
2023/08/17 06:24:09;;;;;;;5.97;2.47;;;18.20;99.90;;;;;;4972489;28;20189;-90
2023/08/17 06:26:35;;;;;;;4.30;3.15;;;18.20;99.90;;;;;;4957744;28;20235;-90
2023/08/17 06:29:00;;;;;;;3.45;2.70;;;18.10;99.90;;;;;;4960931;28;20188;-92
2023/08/17 06:31:27;;;;;;;4.35;3.15;;;18.10;99.90;;;;;;4976892;28;20259;-92
2023/08/17 06:33:54;;;;;;;6.70;3.38;;;18.10;99.90;;;;;;4976094;28;20335;-92
2023/08/17 06:36:20;;;;;;;4.57;2.50;;;18.10;99.90;;;;;;4975558;28;20624;-93
2023/08/17 06:38:46;;;;;;;8.35;3.00;;;18.10;99.90;;;;;;4975673;28;20239;-91
2023/08/17 06:41:11;;;;;;;6.28;3.00;;;18.10;99.90;;;;;;4972636;28;20197;-92
2023/08/17 06:43:37;;;;;;;3.17;2.78;;;18.00;99.90;;;;;;4975433;28;20188;-91
2023/08/17 06:46:04;;;;;;;5.03;3.20;;;18.00;99.90;;;;;;4975949;28;20604;-93
2023/08/17 06:48:31;;;;;;;4.22;2.85;;;18.00;99.90;;;;;;4975460;28;20183;-91
2023/08/17 06:50:57;;;;;;;4.75;4.00;;;18.00;99.90;;;;;;4975256;28;20270;-94
2023/08/17 06:53:22;;;;;;;5.15;3.40;;;18.00;99.90;;;;;;4975105;28;20188;-94
2023/08/17 06:55:49;;;;;;;4.07;3.15;;;18.00;99.90;;;;;;4975057;28;20611;-94
2023/08/17 06:58:25;;;;;;;7.93;3.28;;;18.00;99.90;;;;;;4971763;28;20196;-92
2023/08/17 07:00:51;;;;;;;4.93;3.28;;;18.00;99.90;;;;;;4970006;28;20283;-93
2023/08/17 07:03:17;;;;;;;4.20;3.25;;;18.00;99.90;;;;;;4976398;28;20220;-93
2023/08/17 07:05:57;;;;;;;7.55;3.28;;;18.00;99.90;;;;;;4976300;28;20226;-92
2023/08/17 07:08:22;;;;;;;5.50;3.67;;;17.90;99.90;;;;;;4974251;28;20615;-93
2023/08/17 07:10:48;;;;;;;6.80;3.78;;;18.00;99.90;;;;;;4974533;28;20220;-92
2023/08/17 07:13:14;;;;;;;6.45;4.60;;;18.00;99.90;;;;;;4963414;28;20644;-94
2023/08/17 07:15:47;;;;;;;6.38;3.50;;;18.00;99.90;;;;;;4955939;28;20184;-92
2023/08/17 07:18:13;;;;;;;6.07;3.78;;;18.00;99.90;;;;;;4958490;28;20193;-92
2023/08/17 07:20:39;;;;;;;6.15;3.75;;;18.00;99.90;;;;;;4970014;28;20607;-93
2023/08/17 07:23:05;;;;;;;4.00;3.60;;;18.00;99.90;;;;;;4975187;28;20638;-91
2023/08/17 07:25:30;;;;;;;4.72;3.60;;;18.00;99.90;;;;;;4970534;28;20272;-91
2023/08/17 07:27:56;;;;;;;4.20;3.25;;;18.00;99.90;;;;;;4975647;28;20185;-93
2023/08/17 07:30:22;;;;;;;3.85;3.30;;;18.00;99.90;;;;;;4974005;28;20224;-90
2023/08/17 07:32:49;;;;;;;7.13;4.20;;;18.00;99.90;;;;;;4974692;28;20219;-91
2023/08/17 07:35:14;;;;;;;3.72;3.40;;;18.10;99.90;;;;;;4974835;28;20181;-92
2023/08/17 07:37:40;;;;;;;4.47;3.22;;;18.10;99.90;;;;;;4975524;28;20177;-93
2023/08/17 07:40:07;;;;;;;4.80;3.00;;;18.10;99.90;;;;;;4974901;28;20554;-90
2023/08/17 07:42:33;;;;;;;5.20;3.10;;;18.10;99.90;;;;;;4973343;28;20184;-91
2023/08/17 07:44:59;;;;;;;3.63;3.08;;;18.10;99.90;;;;;;4972457;28;20251;-95
2023/08/17 07:47:24;;;;;;;4.70;3.40;;;18.10;99.90;;;;;;4974280;28;20238;-89
2023/08/17 07:49:50;;;;;;;3.53;3.20;;;18.20;99.90;;;;;;4957869;28;20180;-90
2023/08/17 07:52:16;;;;;;;4.05;3.13;;;18.10;99.90;;;;;;4954700;28;20189;-89
2023/08/17 07:54:42;;;;;;;5.07;3.10;;;18.20;99.90;;;;;;4953912;28;20623;-89
2023/08/17 07:57:07;;;;;;;3.85;3.22;;;18.20;99.90;;;;;;4954346;28;20682;-91
2023/08/17 07:59:33;;;;;;;4.88;3.50;;;18.10;99.90;;;;;;4972984;28;20196;-89
2023/08/17 08:01:58;;;;;;;3.58;3.25;;;18.10;99.90;;;;;;4973380;28;20513;-88
2023/08/17 08:04:24;;;;;;;3.80;3.17;;;18.10;99.90;;;;;;4975142;28;20181;-92
2023/08/17 08:06:52;;;;;;;3.58;3.28;;;18.10;99.90;;;;;;4974001;28;20184;-92
2023/08/17 08:09:18;;;;;;;4.32;3.63;;;18.20;99.90;;;;;;4973617;28;20267;-89
2023/08/17 08:11:43;;;;;;;4.05;3.40;;;18.10;99.90;;;;;;4975544;28;20601;-89
2023/08/17 08:14:09;;;;;;;4.13;3.30;;;18.20;99.90;;;;;;4974497;28;20183;-89
2023/08/17 08:16:35;;;;;;;3.45;3.15;;;18.20;99.90;;;;;;4975272;28;20211;-88
2023/08/17 08:19:00;;;;;;;6.32;3.80;;;18.20;99.90;;;;;;4973436;28;20190;-89
2023/08/17 08:21:27;;;;;;;4.68;3.90;;;18.20;99.90;;;;;;4974231;28;20177;-91
2023/08/17 08:23:53;;;;;;;6.85;3.83;;;18.20;99.90;;;;;;4974526;28;20185;-90
2023/08/17 08:26:19;;;;;;;8.40;4.15;;;18.20;99.90;;;;;;4974011;28;20706;-90
2023/08/17 08:28:45;;;;;;;6.68;4.53;;;18.20;99.90;;;;;;4974802;28;20568;-91
2023/08/17 08:31:10;;;;;;;7.00;4.70;;;18.20;99.90;;;;;;4974027;28;20231;-89
2023/08/17 08:33:36;;;;;;;4.03;3.15;;;18.20;99.90;;;;;;4976013;28;20181;-88
2023/08/17 08:36:02;;;;;;;4.95;3.95;;;18.30;99.90;;;;;;4979091;28;20859;-88
2023/08/17 08:38:28;;;;;;;4.38;3.38;;;18.30;99.90;;;;;;4977994;28;20188;-90
2023/08/17 08:40:54;;;;;;;5.22;3.40;;;18.30;99.90;;;;;;4993932;28;20191;-90
2023/08/17 08:43:20;;;;;;;5.57;3.50;;;18.20;99.90;;;;;;4976955;28;20180;-89
2023/08/17 08:45:47;;;;;;;5.78;3.25;;;18.30;99.90;;;;;;4978632;28;20522;-89
2023/08/17 08:48:15;;;;;;;4.60;3.15;;;18.20;99.90;;;;;;4976827;28;20327;-87
2023/08/17 08:50:41;;;;;;;8.00;3.60;;;18.20;99.90;;;;;;4978159;28;20298;-89
2023/08/17 08:53:17;;;;;;;4.97;3.20;;;18.00;99.90;;;;;;4977326;28;20502;-90
2023/08/17 08:55:57;;;;;;;4.35;3.95;;;18.00;99.90;;;;;;4976416;28;20191;-90
2023/08/17 08:58:25;;;;;;;5.13;3.70;;;17.90;99.90;;;;;;4975031;28;20323;-89
2023/08/17 09:00:53;;;;;;;7.22;4.07;;;17.90;99.90;;;;;;4975019;28;20232;-89
2023/08/17 09:03:20;;;;;;;4.55;3.55;;;17.90;99.90;;;;;;4977181;28;20188;-90
2023/08/17 09:05:50;;;;;;;5.07;4.13;;;18.00;99.90;;;;;;4977540;28;20251;-90
2023/08/17 09:08:20;;;;;;;5.20;3.63;;;18.00;99.90;;;;;;4969986;28;20193;-89
2023/08/17 09:10:47;;;;;;;3.47;3.15;;;18.00;99.90;;;;;;4959581;28;20224;-88
2023/08/17 09:13:12;;;;;;;4.80;3.13;;;18.10;99.90;;;;;;4977443;28;20238;-89
2023/08/17 09:15:39;;;;;;;5.10;3.30;;;18.10;99.90;;;;;;4977055;28;20275;-92
2023/08/17 09:18:09;;;;;;;4.60;3.22;;;18.10;99.90;;;;;;4972614;28;20189;-92
2023/08/17 09:20:36;;;;;;;4.63;3.17;;;18.20;99.90;;;;;;4973781;28;20184;-88
2023/08/17 09:23:04;;;;;;;4.57;3.03;;;18.20;99.90;;;;;;4973718;28;20284;-88
2023/08/17 09:25:31;;;;;;;4.63;2.75;;;18.20;99.90;;;;;;4973718;28;20177;-89
2023/08/17 09:27:57;;;;;;;5.57;3.47;;;18.10;99.90;;;;;;4975582;28;20193;-88
2023/08/17 09:30:23;;;;;;;5.15;3.30;;;18.10;99.90;;;;;;4976137;28;20212;-89
2023/08/17 09:32:49;;;;;;;6.00;2.75;;;18.10;99.90;;;;;;4976520;28;20207;-89
2023/08/17 09:35:15;;;;;;;5.10;2.80;;;18.10;99.90;;;;;;4976852;28;20191;-89
2023/08/17 09:37:41;;;;;;;4.25;2.45;;;18.00;99.90;;;;;;4977355;28;20552;-89
2023/08/17 09:40:08;;;;;;;4.13;2.50;;;18.10;99.90;;;;;;4974447;28;20193;-87
2023/08/17 09:42:38;;;;;;;5.45;2.70;;;18.10;99.90;;;;;;4993242;28;20578;-90
2023/08/17 09:45:05;;;;;;;2.97;2.67;;;18.00;99.90;;;;;;4994072;28;20173;-89
2023/08/17 09:47:31;;;;;;;4.63;2.90;;;17.90;99.90;;;;;;4976549;28;20207;-88
2023/08/17 09:49:57;;;;;;;5.20;2.80;;;18.00;99.90;;;;;;4974465;28;20220;-91
2023/08/17 09:52:26;;;;;;;4.47;2.47;;;18.00;99.90;;;;;;4970282;28;20280;-90
2023/08/17 09:54:54;;;;;;;5.25;2.42;;;18.00;99.90;;;;;;4993408;28;20200;-90
2023/08/17 09:57:22;;;;;;;4.85;2.40;;;17.90;99.90;;;;;;4977897;28;20188;-90
2023/08/17 09:59:50;;;;;;;3.08;2.28;;;17.90;99.90;;;;;;4977702;28;20177;-91
2023/08/17 10:02:19;;;;;;;2.58;2.38;;;18.00;99.90;;;;;;4975451;28;20185;-93
2023/08/17 10:04:52;;;;;;;4.90;2.55;;;18.00;99.90;;;;;;4978042;28;20248;-93
2023/08/17 10:07:24;;;;;;;6.93;2.90;;;18.00;99.90;;;;;;4976148;28;20192;-91
2023/08/17 10:10:10;;;;;;;6.03;2.30;;;17.90;99.90;;;;;;4975710;28;20259;-90
2023/08/17 10:13:11;;;;;;;3.83;2.30;;;17.90;99.90;;;;;;4973964;28;20201;-89
2023/08/17 10:15:50;;;;;;;4.78;2.47;;;17.80;99.90;;;;;;4976182;28;20263;-91
2023/08/17 10:18:26;;;;;;;4.35;2.42;;;17.70;99.90;;;;;;4991138;28;20526;-89
2023/08/17 10:21:02;;;;;;;4.43;2.20;;;17.70;99.90;;;;;;4989657;28;20616;-90
2023/08/17 10:23:28;;;;;;;5.03;2.80;;;17.50;99.90;;;;;;4972597;28;20180;-90
2023/08/17 10:25:55;;;;;;;5.15;2.50;;;17.50;99.90;;;;;;4966049;28;20220;-89
2023/08/17 10:28:24;;;;;;;5.13;2.55;;;17.40;99.90;;;;;;4976371;28;20651;-93
2023/08/17 10:30:51;;;;;;;4.10;2.40;;;17.30;99.90;;;;;;4974130;28;20299;-93
2023/08/17 10:33:17;;;;;;;4.53;2.47;;;17.30;99.90;;;;;;4975106;28;20195;-92
2023/08/17 10:35:44;;;;;;;5.38;2.55;;;17.30;99.90;;;;;;4976815;28;20184;-93
2023/08/17 10:38:11;;;;;;;8.55;2.65;;;17.30;99.90;;;;;;4975552;28;20188;-90
2023/08/17 10:40:42;;;;;;;3.85;2.33;;;17.20;99.90;;;;;;4974893;28;20204;-87
2023/08/17 10:43:08;;;;;;;6.45;2.28;;;17.30;99.90;;;;;;4971843;28;20528;-89
2023/08/17 10:45:37;;;;;;;5.57;2.58;;;17.30;99.90;;;;;;4971972;28;20249;-91
2023/08/17 10:48:09;;;;;;;5.13;2.45;;;17.40;99.90;;;;;;4955966;28;20185;-88
2023/08/17 10:50:36;;;;;;;5.07;2.45;;;17.40;99.90;;;;;;4978839;28;20239;-89
2023/08/17 10:53:10;;;;;;;6.22;2.78;;;17.40;99.90;;;;;;4973292;28;20192;-88
2023/08/17 10:55:44;;;;;;;2.90;2.28;;;17.50;99.90;;;;;;4974074;28;20175;-89
2023/08/17 10:58:11;;;;;;;3.40;2.45;;;17.50;99.90;;;;;;4975306;28;20189;-91
2023/08/17 11:00:38;;;;;;;9.80;2.60;;;17.50;99.90;;;;;;4974064;28;20224;-90
2023/08/17 11:03:16;;;;;;;4.05;2.58;;;17.50;99.90;;;;;;4974179;28;20299;-90
2023/08/17 11:05:55;;;;;;;7.88;3.33;;;17.50;99.90;;;;;;4975978;28;20165;-91
2023/08/17 11:08:29;;;;;;;3.13;2.67;;;17.50;99.90;;;;;;4974466;28;20275;-90
2023/08/17 11:11:06;;;;;;;3.50;2.55;;;17.60;99.90;;;;;;4975339;28;20232;-92
2023/08/17 11:13:33;;;;;;;4.30;2.40;;;17.60;99.90;;;;;;4973396;28;20192;-90
2023/08/17 11:16:00;;;;;;;4.28;2.33;;;17.70;99.90;;;;;;4974891;28;20231;-91
2023/08/17 11:18:26;;;;;;;6.20;2.45;;;17.70;99.90;;;;;;4966247;28;20185;-91
2023/08/17 11:20:52;;;;;;;5.07;2.35;;;17.60;99.90;;;;;;4955139;28;20251;-87
2023/08/17 11:23:18;;;;;;;4.47;2.58;;;17.70;99.90;;;;;;4969490;28;20215;-90
2023/08/17 11:25:44;;;;;;;7.10;2.17;;;17.70;99.90;;;;;;4955227;28;20743;-89
2023/08/17 11:28:10;;;;;;;5.07;2.45;;;17.80;99.90;;;;;;4956342;28;20491;-91
2023/08/17 11:30:38;;;;;;;5.47;2.78;;;17.80;99.90;;;;;;4954988;28;20212;-92
2023/08/17 11:33:05;;;;;;;4.60;2.60;;;17.80;99.90;;;;;;4967496;28;20227;-90
2023/08/17 11:35:30;;;;;;;5.93;2.80;;;17.80;99.90;;;;;;4990325;28;20177;-92
2023/08/17 11:37:56;;;;;;;5.60;2.92;;;17.90;99.90;;;;;;4973979;28;20177;-91
2023/08/17 11:40:25;;;;;;;6.18;3.22;;;18.00;99.90;;;;;;4973669;28;20243;-91
2023/08/17 11:42:51;;;;;;;5.55;3.38;;;17.90;99.90;;;;;;4973940;28;20185;-91
2023/08/17 11:45:17;;;;;;;8.23;3.47;;;18.00;99.90;;;;;;4974386;28;20183;-93
2023/08/17 11:47:43;;;;;;;3.60;2.60;;;18.00;99.90;;;;;;4973330;28;20643;-91
2023/08/17 11:50:13;;;;;;;5.38;3.13;;;18.00;99.90;;;;;;4973919;28;20204;-90
2023/08/17 11:52:39;;;;;;;5.93;3.47;;;18.10;99.90;;;;;;4973494;28;20188;-93
2023/08/17 11:55:06;;;;;;;11.00;3.63;;;18.00;99.90;;;;;;4974073;28;20279;-92
2023/08/17 11:57:35;;;;;;;7.53;3.35;;;18.10;99.90;;;;;;4973380;28;20697;-93
2023/08/17 12:00:03;;;;;;;5.15;3.30;;;18.10;99.90;;;;;;4973723;28;20203;-92
2023/08/17 12:02:30;;;;;;;6.55;3.20;;;18.20;99.90;;;;;;4973025;28;20530;-89
2023/08/17 12:04:56;;;;;;;4.55;3.22;;;18.20;99.90;;;;;;4970604;28;20184;-88
2023/08/17 12:07:32;;;;;;;6.72;3.60;;;18.20;99.90;;;;;;4974907;28;20504;-91
2023/08/17 12:09:58;;;;;;;5.78;3.20;;;18.30;99.90;;;;;;4977905;28;20171;-91
2023/08/17 12:12:24;;;;;;;6.55;3.65;;;18.30;99.90;;;;;;4976397;28;20250;-92
2023/08/17 12:14:49;;;;;;;5.10;3.40;;;18.30;99.90;;;;;;4977802;28;20240;-90
2023/08/17 12:17:18;;;;;;;8.05;2.90;;;18.30;99.90;;;;;;4977569;28;20180;-91
2023/08/17 12:19:44;;;;;;;4.07;2.28;;;18.30;99.90;;;;;;4977665;28;20188;-91
2023/08/17 12:22:12;;;;;;;5.88;2.63;;;18.30;99.90;;;;;;4977497;28;20180;-91
2023/08/17 12:24:38;;;;;;;4.20;3.00;;;18.30;99.90;;;;;;4978499;28;20189;-92
2023/08/17 12:27:05;;;;;;;4.95;2.72;;;18.30;99.90;;;;;;4978223;28;20608;-90
2023/08/17 12:29:31;;;;;;;7.93;2.88;;;18.30;99.90;;;;;;4988506;28;20196;-91
2023/08/17 12:31:58;;;;;;;6.45;3.33;;;18.40;99.90;;;;;;4971600;28;20209;-91
2023/08/17 12:34:24;;;;;;;7.18;3.03;;;18.30;99.90;;;;;;4974909;28;20624;-90
2023/08/17 12:36:50;;;;;;;7.97;2.95;;;18.30;99.90;;;;;;4976592;28;20243;-88
2023/08/17 12:39:16;;;;;;;7.60;3.10;;;18.30;99.90;;;;;;4991467;28;20185;-89
2023/08/17 12:41:42;;;;;;;7.47;3.78;;;18.30;99.90;;;;;;4975960;28;20275;-90
2023/08/17 12:44:13;;;;;;;7.78;3.38;;;18.40;99.90;;;;;;4977227;28;20275;-87
2023/08/17 12:46:39;;;;;;;7.53;3.40;;;18.40;99.90;;;;;;4976364;28;20184;-87